Time;durP1;ratioP1;P1;durP2;ratioP2;P2;SDS_P1;SDS_P2;PMS_P1;PMS_P2;Temp;Humidity;BMP_temperature;BMP_pressure;BME280_temperature;BME280_humidity;BME280_pressure;Samples;Min_cycle;Max_cycle;Signal;HPM_P1;HPM_P2
2021/08/23 00:00:21;;;;;;;5.43;3.47;;;;;;;;;;8289041;28;20328;-76
2021/08/23 00:04:27;;;;;;;5.82;3.63;;;;;;;;;;8266934;28;20048;-76
2021/08/23 00:08:32;;;;;;;5.07;3.42;;;;;;;;;;8257587;28;20045;-75
2021/08/23 00:12:39;;;;;;;6.40;3.60;;;;;;;;;;8256972;28;20491;-76
2021/08/23 00:16:44;;;;;;;5.53;3.20;;;;;;;;;;8258467;28;20368;-76
2021/08/23 00:20:55;;;;;;;6.50;3.75;;;;;;;;;;8260750;28;20491;-76
2021/08/23 00:25:01;;;;;;;6.75;3.95;;;;;;;;;;8263259;28;20068;-76
2021/08/23 00:29:06;;;;;;;6.18;3.65;;;;;;;;;;8265051;28;20375;-76
2021/08/23 00:33:12;;;;;;;6.38;3.55;;;;;;;;;;8262860;28;20052;-76
2021/08/23 00:37:17;;;;;;;5.80;3.22;;;;;;;;;;8264594;28;20472;-76
2021/08/23 00:41:23;;;;;;;6.55;4.13;;;;;;;;;;8264104;28;20444;-76
2021/08/23 00:45:29;;;;;;;5.78;3.90;;;;;;;;;;8263834;28;20055;-76
2021/08/23 00:49:38;;;;;;;6.95;3.67;;;;;;;;;;8261376;28;20053;-76
2021/08/23 00:53:44;;;;;;;5.00;3.65;;;;;;;;;;8261704;28;20053;-77
2021/08/23 00:57:49;;;;;;;9.07;3.78;;;;;;;;;;8260828;28;20346;-77
2021/08/23 01:02:22;;;;;;;8.45;3.45;;;;;;;;;;8262039;28;20484;-76
2021/08/23 01:06:31;;;;;;;6.45;4.22;;;;;;;;;;8261413;28;20045;-76
2021/08/23 01:10:43;;;;;;;6.00;3.53;;;;;;;;;;8260763;28;20326;-77
2021/08/23 01:14:49;;;;;;;9.98;4.30;;;;;;;;;;8259631;28;20423;-76
2021/08/23 01:18:54;;;;;;;5.07;3.53;;;;;;;;;;8262735;28;20326;-76
2021/08/23 01:22:59;;;;;;;8.25;3.97;;;;;;;;;;8261450;28;20498;-76
2021/08/23 01:27:09;;;;;;;6.07;4.13;;;;;;;;;;8079948;28;5001158;-76
2021/08/23 01:31:36;;;;;;;7.70;4.10;;;;;;;;;;8258705;28;20992;-75
2021/08/23 01:35:41;;;;;;;7.00;3.88;;;;;;;;;;8262343;28;20372;-76
2021/08/23 01:39:48;;;;;;;6.18;3.92;;;;;;;;;;8259262;28;20384;-76
2021/08/23 01:43:53;;;;;;;6.15;4.07;;;;;;;;;;8260853;28;20072;-75
2021/08/23 01:47:59;;;;;;;5.88;4.45;;;;;;;;;;8259596;28;20369;-76
2021/08/23 01:52:06;;;;;;;6.35;4.18;;;;;;;;;;8262688;28;20347;-76
2021/08/23 01:56:12;;;;;;;5.53;4.07;;;;;;;;;;8260214;28;20441;-75
2021/08/23 02:00:17;;;;;;;7.25;4.00;;;;;;;;;;8262901;28;20622;-75
2021/08/23 02:04:23;;;;;;;6.25;4.50;;;;;;;;;;8260323;28;20380;-76
2021/08/23 02:08:28;;;;;;;8.48;4.55;;;;;;;;;;8262130;28;20072;-75
2021/08/23 02:12:33;;;;;;;12.35;4.20;;;;;;;;;;8261762;28;20045;-76
2021/08/23 02:16:39;;;;;;;5.82;4.43;;;;;;;;;;8259885;28;20037;-75
2021/08/23 02:20:44;;;;;;;6.45;4.38;;;;;;;;;;8260504;28;20521;-76
2021/08/23 02:24:49;;;;;;;5.72;3.90;;;;;;;;;;8262226;28;20368;-76
2021/08/23 02:28:54;;;;;;;7.03;4.43;;;;;;;;;;8259423;28;20045;-75
2021/08/23 02:32:59;;;;;;;8.15;3.72;;;;;;;;;;8258416;28;20076;-75
2021/08/23 02:37:04;;;;;;;9.68;4.68;;;;;;;;;;8261080;28;20467;-75
2021/08/23 02:41:09;;;;;;;5.88;4.18;;;;;;;;;;8257849;28;20063;-75
2021/08/23 02:45:15;;;;;;;9.55;4.65;;;;;;;;;;8249641;28;20049;-75
2021/08/23 02:49:20;;;;;;;7.47;4.15;;;;;;;;;;8241709;28;20452;-75
2021/08/23 02:53:25;;;;;;;6.65;4.15;;;;;;;;;;8242810;28;20452;-76
2021/08/23 02:57:31;;;;;;;7.10;4.65;;;;;;;;;;8244497;28;20395;-75
2021/08/23 03:01:36;;;;;;;6.35;4.43;;;;;;;;;;8241831;28;20342;-76
2021/08/23 03:05:42;;;;;;;7.90;4.78;;;;;;;;;;8243574;28;20431;-76
2021/08/23 03:09:48;;;;;;;8.68;4.57;;;;;;;;;;8241063;28;20056;-75
2021/08/23 03:13:53;;;;;;;6.60;4.57;;;;;;;;;;8239595;28;20114;-75
2021/08/23 03:17:58;;;;;;;7.57;4.95;;;;;;;;;;8238022;28;20065;-75
2021/08/23 03:22:04;;;;;;;10.85;4.40;;;;;;;;;;8255708;28;20052;-76
2021/08/23 03:26:10;;;;;;;8.60;5.28;;;;;;;;;;8242641;28;20407;-76
2021/08/23 03:30:15;;;;;;;7.38;4.18;;;;;;;;;;8238297;28;20183;-75
2021/08/23 03:34:23;;;;;;;6.35;4.35;;;;;;;;;;8241801;28;20472;-76
2021/08/23 03:38:27;;;;;;;6.50;4.65;;;;;;;;;;8239919;28;20082;-76
2021/08/23 03:42:33;;;;;;;7.28;4.65;;;;;;;;;;8237347;28;20075;-76
2021/08/23 03:46:38;;;;;;;6.10;4.72;;;;;;;;;;8239495;28;20397;-75
2021/08/23 03:50:43;;;;;;;8.05;4.90;;;;;;;;;;8241458;28;20049;-75
2021/08/23 03:54:49;;;;;;;6.72;4.68;;;;;;;;;;8240663;28;20149;-76
2021/08/23 03:58:53;;;;;;;11.30;4.72;;;;;;;;;;8253735;28;20494;-75
2021/08/23 04:02:59;;;;;;;7.47;4.40;;;;;;;;;;8241068;28;20040;-75
2021/08/23 04:07:04;;;;;;;5.93;4.10;;;;;;;;;;8237756;28;20037;-77
2021/08/23 04:11:13;;;;;;;8.57;4.22;;;;;;;;;;8237629;28;20057;-76
2021/08/23 04:15:18;;;;;;;13.65;4.70;;;;;;;;;;8249183;28;20049;-75
2021/08/23 04:19:23;;;;;;;7.03;4.53;;;;;;;;;;8254927;28;20411;-76
2021/08/23 04:23:28;;;;;;;7.03;4.72;;;;;;;;;;8256579;28;20464;-75
2021/08/23 04:27:33;;;;;;;6.65;4.20;;;;;;;;;;8256526;28;20482;-75
2021/08/23 04:31:38;;;;;;;9.48;5.18;;;;;;;;;;8256172;28;20083;-76
2021/08/23 04:35:44;;;;;;;8.40;5.28;;;;;;;;;;8256647;28;20388;-75
2021/08/23 04:39:50;;;;;;;5.57;4.82;;;;;;;;;;8260110;28;20466;-75
2021/08/23 04:43:55;;;;;;;10.30;4.72;;;;;;;;;;8257464;28;20495;-76
2021/08/23 04:48:01;;;;;;;7.78;4.55;;;;;;;;;;8257027;28;20356;-76
2021/08/23 04:52:06;;;;;;;6.82;4.03;;;;;;;;;;8256154;28;20060;-76
2021/08/23 04:56:12;;;;;;;6.40;5.13;;;;;;;;;;8238208;28;20045;-76
2021/08/23 05:00:18;;;;;;;7.30;4.57;;;;;;;;;;8229347;28;20049;-76
2021/08/23 05:04:24;;;;;;;7.10;5.00;;;;;;;;;;8254237;28;20457;-77
2021/08/23 05:08:29;;;;;;;7.40;4.43;;;;;;;;;;8260349;28;20456;-77
2021/08/23 05:12:34;;;;;;;9.30;4.85;;;;;;;;;;8262882;28;20045;-76
2021/08/23 05:16:39;;;;;;;6.93;4.57;;;;;;;;;;8261591;28;20482;-76
2021/08/23 05:20:45;;;;;;;7.90;4.68;;;;;;;;;;8261459;28;20479;-76
2021/08/23 05:24:50;;;;;;;9.43;4.93;;;;;;;;;;8262277;28;20384;-75
2021/08/23 05:28:55;;;;;;;11.32;5.13;;;;;;;;;;8260001;28;20471;-75
2021/08/23 05:33:01;;;;;;;8.35;5.20;;;;;;;;;;8262013;28;20049;-75
2021/08/23 05:37:06;;;;;;;9.18;5.35;;;;;;;;;;8259165;28;20057;-75
2021/08/23 05:41:11;;;;;;;12.13;5.75;;;;;;;;;;8262253;28;20476;-76
2021/08/23 05:45:18;;;;;;;10.27;5.53;;;;;;;;;;8260230;28;20590;-77
2021/08/23 05:49:23;;;;;;;8.27;5.00;;;;;;;;;;8260461;28;20349;-76
2021/08/23 05:53:28;;;;;;;13.63;6.30;;;;;;;;;;8258770;28;20040;-76
2021/08/23 05:57:33;;;;;;;10.40;6.03;;;;;;;;;;8274907;28;20492;-76
2021/08/23 06:01:38;;;;;;;12.70;6.82;;;;;;;;;;8262100;28;20506;-77
2021/08/23 06:05:43;;;;;;;12.98;6.88;;;;;;;;;;8276166;28;20356;-77
2021/08/23 06:09:48;;;;;;;11.02;7.10;;;;;;;;;;8259426;28;20476;-76
2021/08/23 06:13:54;;;;;;;13.70;7.80;;;;;;;;;;8274536;28;20395;-78
2021/08/23 06:17:59;;;;;;;14.05;7.88;;;;;;;;;;8259721;28;20044;-78
2021/08/23 06:22:05;;;;;;;11.30;8.13;;;;;;;;;;8244574;28;20045;-77
2021/08/23 06:26:10;;;;;;;10.05;7.85;;;;;;;;;;8249863;28;20380;-77
2021/08/23 06:30:15;;;;;;;13.18;8.25;;;;;;;;;;8240762;28;20368;-77
2021/08/23 06:34:20;;;;;;;12.60;7.80;;;;;;;;;;8258392;28;20487;-76
2021/08/23 06:38:25;;;;;;;16.17;8.55;;;;;;;;;;8261911;28;20371;-79
2021/08/23 06:42:30;;;;;;;12.48;8.38;;;;;;;;;;8260851;28;20060;-80
2021/08/23 06:46:35;;;;;;;15.80;8.15;;;;;;;;;;8259391;28;20115;-77
2021/08/23 06:50:41;;;;;;;11.25;8.32;;;;;;;;;;8265729;28;20375;-77
2021/08/23 06:54:46;;;;;;;9.65;7.80;;;;;;;;;;8264284;28;20468;-77
2021/08/23 06:58:51;;;;;;;12.77;7.63;;;;;;;;;;8263435;28;20486;-77
2021/08/23 07:02:57;;;;;;;12.70;8.10;;;;;;;;;;8262400;28;20345;-78
2021/08/23 07:07:03;;;;;;;12.80;7.47;;;;;;;;;;8260556;28;20457;-77
2021/08/23 07:11:09;;;;;;;10.18;7.03;;;;;;;;;;8263404;28;20090;-79
2021/08/23 07:15:15;;;;;;;9.07;7.00;;;;;;;;;;8262797;28;20053;-78
2021/08/23 07:19:21;;;;;;;9.35;6.40;;;;;;;;;;8266265;28;20593;-77
2021/08/23 07:23:26;;;;;;;10.32;7.55;;;;;;;;;;8264379;28;20490;-76
2021/08/23 07:27:32;;;;;;;13.45;7.63;;;;;;;;;;8262714;28;20067;-77
2021/08/23 07:31:38;;;;;;;9.05;6.82;;;;;;;;;;8264706;28;20383;-77
2021/08/23 07:35:43;;;;;;;9.82;6.55;;;;;;;;;;8263865;28;20361;-79
2021/08/23 07:39:48;;;;;;;10.00;6.35;;;;;;;;;;8257984;28;20049;-78
2021/08/23 07:43:53;;;;;;;10.95;7.20;;;;;;;;;;8262596;28;20464;-77
2021/08/23 07:47:58;;;;;;;12.57;7.75;;;;;;;;;;8261705;28;20037;-76
2021/08/23 07:52:04;;;;;;;14.75;9.30;;;;;;;;;;8262902;28;20486;-76
2021/08/23 07:56:10;;;;;;;13.40;8.73;;;;;;;;;;8263386;28;20045;-78
2021/08/23 08:00:20;;;;;;;14.77;9.13;;;;;;;;;;8260399;28;20456;-77
2021/08/23 08:04:25;;;;;;;11.95;9.13;;;;;;;;;;8259388;28;20407;-78
2021/08/23 08:08:30;;;;;;;18.85;10.88;;;;;;;;;;8260063;28;20513;-77
2021/08/23 08:12:37;;;;;;;19.50;12.55;;;;;;;;;;8260171;28;20476;-76
2021/08/23 08:16:42;;;;;;;16.73;12.50;;;;;;;;;;8256430;28;20444;-77
2021/08/23 08:20:47;;;;;;;20.73;12.02;;;;;;;;;;8254974;28;20056;-77
2021/08/23 08:24:52;;;;;;;21.83;12.10;;;;;;;;;;8258350;28;20489;-77
2021/08/23 08:28:57;;;;;;;18.42;11.98;;;;;;;;;;8257615;28;20467;-77
2021/08/23 08:33:03;;;;;;;15.45;9.32;;;;;;;;;;8258035;28;20349;-77
2021/08/23 08:37:08;;;;;;;11.48;5.82;;;;;;;;;;8258125;28;20368;-78
2021/08/23 08:41:13;;;;;;;11.07;7.13;;;;;;;;;;8260951;28;20352;-76
2021/08/23 08:45:19;;;;;;;14.30;8.77;;;;;;;;;;8245458;28;20041;-77
2021/08/23 08:49:25;;;;;;;17.48;10.07;;;;;;;;;;8263089;28;20067;-76
2021/08/23 08:53:30;;;;;;;17.30;9.95;;;;;;;;;;8260926;28;20464;-78
2021/08/23 08:57:37;;;;;;;16.42;9.80;;;;;;;;;;8262641;28;20415;-77
2021/08/23 09:01:43;;;;;;;13.32;7.93;;;;;;;;;;8263976;28;20345;-77
2021/08/23 09:05:52;;;;;;;11.55;7.10;;;;;;;;;;8262155;28;20419;-76
2021/08/23 09:09:57;;;;;;;;;;;;;;;;;;8266356;28;20452;-77
2021/08/23 09:14:06;;;;;;;10.75;6.28;;;;;;;;;;8262919;28;19921;-76
2021/08/23 09:18:12;;;;;;;6.65;4.95;;;;;;;;;;8279037;28;20333;-76
2021/08/23 09:22:18;;;;;;;9.13;5.05;;;;;;;;;;8262850;28;20045;-76
2021/08/23 09:26:24;;;;;;;8.25;5.45;;;;;;;;;;8260082;28;20452;-77
2021/08/23 09:30:29;;;;;;;7.05;4.82;;;;;;;;;;8260637;28;20472;-76
2021/08/23 09:34:44;;;;;;;6.70;4.60;;;;;;;;;;8260888;28;20460;-75
2021/08/23 09:39:05;;;;;;;5.13;3.85;;;;;;;;;;8259846;28;20472;-77
2021/08/23 09:43:12;;;;;;;5.95;3.97;;;;;;;;;;8260445;28;20449;-76
2021/08/23 09:47:17;;;;;;;6.50;3.67;;;;;;;;;;8260959;28;20088;-76
2021/08/23 09:51:28;;;;;;;6.55;3.55;;;;;;;;;;8261153;28;20507;-76
2021/08/23 09:55:33;;;;;;;5.38;3.90;;;;;;;;;;8261254;28;20490;-76
2021/08/23 09:59:39;;;;;;;6.55;4.13;;;;;;;;;;8263900;28;20045;-77
2021/08/23 10:03:44;;;;;;;5.93;3.80;;;;;;;;;;8261107;28;20460;-77
2021/08/23 10:07:51;;;;;;;6.40;4.05;;;;;;;;;;8260133;28;20396;-76
2021/08/23 10:11:59;;;;;;;5.13;3.80;;;;;;;;;;8260010;28;20353;-77
2021/08/23 10:16:05;;;;;;;6.97;4.00;;;;;;;;;;8261712;28;20487;-78
2021/08/23 10:20:12;;;;;;;8.25;3.72;;;;;;;;;;8264097;28;20452;-76
2021/08/23 10:24:28;;;;;;;4.77;3.00;;;;;;;;;;8261379;28;20372;-78
2021/08/23 10:28:38;;;;;;;5.70;2.85;;;;;;;;;;8261700;28;20040;-75
2021/08/23 10:32:43;;;;;;;5.18;3.70;;;;;;;;;;8261059;28;20107;-77
2021/08/23 10:36:51;;;;;;;6.03;3.22;;;;;;;;;;8260405;28;20502;-76
2021/08/23 10:41:24;;;;;;;;;;;;;;;;;;8258951;28;20523;-78
2021/08/23 10:45:39;;;;;;;3.65;2.85;;;;;;;;;;8259061;28;19921;-77
2021/08/23 10:49:49;;;;;;;4.32;2.90;;;;;;;;;;8259864;28;20476;-78
2021/08/23 10:54:02;;;;;;;4.43;3.25;;;;;;;;;;8257872;28;20487;-77
2021/08/23 10:58:10;;;;;;;10.45;4.03;;;;;;;;;;8257954;28;20407;-77
2021/08/23 11:02:37;;;;;;;10.10;5.75;;;;;;;;;;8239708;28;20383;-76
2021/08/23 11:06:49;;;;;;;7.43;4.67;;;;;;;;;;8256230;28;20437;-77
2021/08/23 11:11:13;;;;;;;11.10;6.75;;;;;;;;;;8259122;28;20471;-77
2021/08/23 11:15:26;;;;;;;9.15;5.68;;;;;;;;;;8260214;28;20476;-77
2021/08/23 11:19:32;;;;;;;14.02;6.88;;;;;;;;;;8259821;28;20464;-77
2021/08/23 11:23:37;;;;;;;8.82;5.45;;;;;;;;;;8260119;28;20341;-76
2021/08/23 11:27:42;;;;;;;10.15;5.03;;;;;;;;;;8263485;28;20464;-77
2021/08/23 11:32:07;;;;;;;13.82;5.38;;;;;;;;;;8260582;28;20080;-78
2021/08/23 11:36:22;;;;;;;7.53;4.45;;;;;;;;;;8260633;28;20045;-76
2021/08/23 11:40:30;;;;;;;5.70;3.95;;;;;;;;;;8256382;28;20459;-78
2021/08/23 11:44:38;;;;;;;6.77;4.47;;;;;;;;;;8272635;28;20464;-76
2021/08/23 11:48:44;;;;;;;7.50;4.00;;;;;;;;;;8256460;28;20501;-76
2021/08/23 11:53:10;;;;;;;7.43;3.47;;;;;;;;;;8257051;28;20483;-76
2021/08/23 11:57:26;;;;;;;4.80;2.58;;;;;;;;;;8256431;28;20049;-76
2021/08/23 12:01:30;;;;;;;7.22;3.70;;;;;;;;;;8272946;28;20048;-76
2021/08/23 12:05:39;;;;;;;5.22;3.25;;;;;;;;;;8258215;28;20371;-77
2021/08/23 12:09:44;;;;;;;5.20;3.22;;;;;;;;;;8261184;28;20059;-75
2021/08/23 12:13:51;;;;;;;5.60;3.53;;;;;;;;;;8257095;28;20352;-76
2021/08/23 12:17:59;;;;;;;;;;;;;;;;;;8261094;28;20044;-76
2021/08/23 12:22:06;;;;;;;7.38;3.13;;;;;;;;;;8262527;28;20336;-76
2021/08/23 12:26:13;;;;;;;6.07;3.60;;;;;;;;;;8260285;28;20483;-77
2021/08/23 12:30:34;;;;;;;4.97;3.77;;;;;;;;;;8264495;28;20476;-77
2021/08/23 12:34:51;;;;;;;4.28;3.13;;;;;;;;;;8268422;28;21014;-77
2021/08/23 12:38:56;;;;;;;5.50;3.78;;;;;;;;;;8263638;28;20440;-76
2021/08/23 12:43:01;;;;;;;7.20;3.00;;;;;;;;;;8244120;28;20045;-77
2021/08/23 12:47:07;;;;;;;8.77;4.00;;;;;;;;;;8261031;28;20349;-77
2021/08/23 12:51:14;;;;;;;5.88;3.35;;;;;;;;;;8263637;28;20471;-76
2021/08/23 12:55:19;;;;;;;5.63;3.70;;;;;;;;;;8259634;28;20392;-77
2021/08/23 12:59:25;;;;;;;5.05;3.35;;;;;;;;;;8262424;28;20491;-78
2021/08/23 13:03:50;;;;;;;7.53;3.55;;;;;;;;;;8262210;28;20033;-76
2021/08/23 13:07:55;;;;;;;7.65;4.30;;;;;;;;;;8259894;28;20383;-76
2021/08/23 13:12:00;;;;;;;8.65;4.13;;;;;;;;;;8242584;28;20404;-76
2021/08/23 13:16:06;;;;;;;6.63;4.20;;;;;;;;;;8259482;28;20049;-76
2021/08/23 13:20:11;;;;;;;7.13;3.88;;;;;;;;;;8261591;28;20455;-76
2021/08/23 13:24:17;;;;;;;7.45;3.90;;;;;;;;;;8259817;28;20468;-75
2021/08/23 13:28:22;;;;;;;6.18;3.85;;;;;;;;;;8260105;28;20071;-76
2021/08/23 13:32:28;;;;;;;6.38;4.10;;;;;;;;;;8243221;28;20357;-76
2021/08/23 13:36:33;;;;;;;7.07;3.63;;;;;;;;;;8259063;28;20379;-76
2021/08/23 13:40:43;;;;;;;12.68;4.35;;;;;;;;;;8259288;28;20616;-75
2021/08/23 13:44:48;;;;;;;7.30;3.33;;;;;;;;;;8259514;28;20372;-76
2021/08/23 13:48:53;;;;;;;11.70;4.00;;;;;;;;;;8260778;28;20090;-77
2021/08/23 13:52:59;;;;;;;7.30;3.92;;;;;;;;;;8275434;28;20471;-75
2021/08/23 13:57:04;;;;;;;7.97;3.63;;;;;;;;;;8260473;28;20468;-76
2021/08/23 14:01:10;;;;;;;6.05;3.63;;;;;;;;;;8258920;28;20376;-74
2021/08/23 14:05:16;;;;;;;4.80;3.10;;;;;;;;;;8260451;28;20106;-76
2021/08/23 14:09:22;;;;;;;9.90;3.07;;;;;;;;;;8260363;28;20341;-75
2021/08/23 14:13:27;;;;;;;6.38;3.20;;;;;;;;;;8274800;28;21220;-75
2021/08/23 14:17:34;;;;;;;6.57;2.53;;;;;;;;;;8260024;28;20067;-75
2021/08/23 14:21:38;;;;;;;7.40;3.53;;;;;;;;;;8257117;28;20360;-75
2021/08/23 14:25:43;;;;;;;6.90;2.97;;;;;;;;;;8257590;28;20483;-74
2021/08/23 14:29:49;;;;;;;5.13;3.25;;;;;;;;;;8259598;28;20044;-74
2021/08/23 14:33:53;;;;;;;4.75;3.13;;;;;;;;;;8258925;28;20467;-74
2021/08/23 14:37:58;;;;;;;5.15;3.28;;;;;;;;;;8258845;28;20033;-74
2021/08/23 14:42:05;;;;;;;8.35;3.67;;;;;;;;;;8260588;28;20049;-75
2021/08/23 14:46:10;;;;;;;7.27;3.83;;;;;;;;;;8259034;28;20380;-75
2021/08/23 14:50:16;;;;;;;12.52;4.90;;;;;;;;;;8258069;28;20506;-74
2021/08/23 14:54:21;;;;;;;12.95;4.70;;;;;;;;;;8257829;28;20364;-74
2021/08/23 14:58:26;;;;;;;9.35;4.47;;;;;;;;;;8258860;28;20480;-75
2021/08/23 15:02:32;;;;;;;9.07;4.35;;;;;;;;;;8240821;28;20463;-75
2021/08/23 15:06:38;;;;;;;9.57;4.35;;;;;;;;;;8257870;28;20367;-75
2021/08/23 15:10:48;;;;;;;5.90;3.13;;;;;;;;;;8259171;28;20456;-76
2021/08/23 15:14:53;;;;;;;6.82;2.97;;;;;;;;;;8257147;28;20466;-77
2021/08/23 15:19:01;;;;;;;5.18;2.55;;;;;;;;;;8256046;28;20370;-76
2021/08/23 15:23:07;;;;;;;5.35;2.97;;;;;;;;;;8255777;28;20040;-77
2021/08/23 15:27:13;;;;;;;4.13;2.30;;;;;;;;;;8258942;28;20064;-76
2021/08/23 15:31:19;;;;;;;5.80;2.75;;;;;;;;;;8257028;28;20380;-77
2021/08/23 15:35:24;;;;;;;5.43;3.53;;;;;;;;;;8261751;28;20067;-76
2021/08/23 15:39:29;;;;;;;6.18;3.70;;;;;;;;;;8261413;28;20404;-76
2021/08/23 15:43:35;;;;;;;5.63;2.90;;;;;;;;;;8257816;28;20464;-77
2021/08/23 15:47:42;;;;;;;5.20;2.80;;;;;;;;;;8273200;28;20464;-76
2021/08/23 15:51:47;;;;;;;6.47;2.80;;;;;;;;;;8271733;28;20376;-76
2021/08/23 15:55:52;;;;;;;5.07;2.20;;;;;;;;;;8259743;28;20375;-77
2021/08/23 15:59:57;;;;;;;4.13;2.53;;;;;;;;;;8265896;28;20503;-77
2021/08/23 16:04:02;;;;;;;2.97;1.95;;;;;;;;;;8264655;28;20506;-77
2021/08/23 16:08:09;;;;;;;3.95;2.85;;;;;;;;;;8263162;28;20486;-77
2021/08/23 16:12:14;;;;;;;3.45;2.45;;;;;;;;;;8268612;28;20345;-77
2021/08/23 16:16:20;;;;;;;4.30;2.58;;;;;;;;;;8268993;28;20472;-78
2021/08/23 16:20:26;;;;;;;11.00;3.65;;;;;;;;;;8267852;28;20510;-78
2021/08/23 16:24:31;;;;;;;24.75;13.68;;;;;;;;;;8268027;28;20371;-77
2021/08/23 16:28:37;;;;;;;6.60;3.97;;;;;;;;;;8266604;28;20397;-77
2021/08/23 16:33:02;;;;;;;5.20;3.03;;;;;;;;;;8265982;28;20065;-77
2021/08/23 16:37:07;;;;;;;4.50;2.83;;;;;;;;;;8264440;28;20468;-77
2021/08/23 16:41:12;;;;;;;2.75;2.10;;;;;;;;;;8263254;28;20546;-77
2021/08/23 16:45:18;;;;;;;9.15;4.47;;;;;;;;;;8261017;28;20379;-77
2021/08/23 16:49:23;;;;;;;5.78;3.42;;;;;;;;;;8259624;28;20466;-77
2021/08/23 16:53:28;;;;;;;7.18;3.38;;;;;;;;;;8255622;28;20362;-77
2021/08/23 16:57:34;;;;;;;6.00;3.10;;;;;;;;;;8255875;28;20064;-76
2021/08/23 17:01:39;;;;;;;7.93;5.22;;;;;;;;;;8255354;28;20052;-76
2021/08/23 17:05:44;;;;;;;7.57;3.67;;;;;;;;;;8261056;28;20519;-76
2021/08/23 17:09:50;;;;;;;4.60;3.35;;;;;;;;;;8263120;28;20487;-76
2021/08/23 17:13:55;;;;;;;7.35;3.88;;;;;;;;;;8262163;28;20501;-77
2021/08/23 17:18:00;;;;;;;7.30;3.20;;;;;;;;;;8262818;28;20060;-76
2021/08/23 17:22:06;;;;;;;5.45;3.25;;;;;;;;;;8260953;28;20075;-77
2021/08/23 17:26:11;;;;;;;6.30;4.03;;;;;;;;;;8261355;28;20071;-76
2021/08/23 17:30:16;;;;;;;11.63;5.13;;;;;;;;;;8259693;28;20372;-76
2021/08/23 17:34:22;;;;;;;15.05;11.57;;;;;;;;;;8259062;28;20483;-77
2021/08/23 17:38:27;;;;;;;5.78;5.03;;;;;;;;;;8262283;28;20349;-76
2021/08/23 17:42:33;;;;;;;4.25;3.10;;;;;;;;;;8261306;28;20067;-76
2021/08/23 17:46:37;;;;;;;6.03;4.07;;;;;;;;;;8261877;28;20372;-77
2021/08/23 17:50:46;;;;;;;4.97;3.28;;;;;;;;;;8258632;28;20472;-76
2021/08/23 17:54:51;;;;;;;5.75;3.42;;;;;;;;;;8259045;28;20464;-76
2021/08/23 17:58:56;;;;;;;11.30;4.60;;;;;;;;;;8260541;28;20371;-76
2021/08/23 18:03:01;;;;;;;7.43;3.53;;;;;;;;;;8260959;28;20376;-76
2021/08/23 18:07:07;;;;;;;8.00;3.80;;;;;;;;;;8241410;28;20372;-78
2021/08/23 18:11:12;;;;;;;8.57;5.22;;;;;;;;;;8260263;28;20502;-75
2021/08/23 18:15:17;;;;;;;23.88;11.88;;;;;;;;;;8275289;28;20482;-77
2021/08/23 18:19:22;;;;;;;8.80;4.70;;;;;;;;;;8258585;28;20407;-76
2021/08/23 18:23:28;;;;;;;6.45;3.85;;;;;;;;;;8259694;28;20503;-77
2021/08/23 18:27:33;;;;;;;4.68;3.55;;;;;;;;;;8259961;28;20037;-76
2021/08/23 18:31:38;;;;;;;6.07;3.83;;;;;;;;;;8258421;28;20460;-77
2021/08/23 18:35:44;;;;;;;5.75;3.38;;;;;;;;;;8259078;28;20033;-76
2021/08/23 18:39:51;;;;;;;6.28;3.33;;;;;;;;;;8258803;28;20371;-77
2021/08/23 18:43:57;;;;;;;3.90;2.92;;;;;;;;;;8257331;28;20041;-76
2021/08/23 18:48:02;;;;;;;6.30;3.38;;;;;;;;;;8261302;28;20471;-76
2021/08/23 18:52:07;;;;;;;4.50;3.20;;;;;;;;;;8258500;28;20044;-76
2021/08/23 18:56:12;;;;;;;8.18;2.97;;;;;;;;;;8258575;28;20356;-76
2021/08/23 19:00:18;;;;;;;4.57;3.30;;;;;;;;;;8273873;28;20379;-76
2021/08/23 19:04:23;;;;;;;3.53;3.00;;;;;;;;;;8258347;28;20045;-76
2021/08/23 19:08:28;;;;;;;8.32;3.30;;;;;;;;;;8273043;28;20375;-76
2021/08/23 19:12:33;;;;;;;4.47;3.15;;;;;;;;;;8259542;28;20375;-77
2021/08/23 19:16:39;;;;;;;5.50;3.53;;;;;;;;;;8258408;28;20375;-76
2021/08/23 19:20:44;;;;;;;8.15;4.38;;;;;;;;;;8255510;28;20364;-76
2021/08/23 19:24:50;;;;;;;7.57;4.18;;;;;;;;;;8256109;28;20451;-77
2021/08/23 19:28:55;;;;;;;5.60;2.92;;;;;;;;;;8256723;28;20498;-76
2021/08/23 19:33:00;;;;;;;4.18;3.13;;;;;;;;;;8254328;28;20410;-77
2021/08/23 19:37:06;;;;;;;5.95;3.28;;;;;;;;;;8258734;28;20049;-76
2021/08/23 19:41:11;;;;;;;6.15;3.63;;;;;;;;;;8257417;28;20044;-77
2021/08/23 19:45:16;;;;;;;8.52;3.72;;;;;;;;;;8255780;28;20415;-77
2021/08/23 19:49:21;;;;;;;11.23;6.40;;;;;;;;;;8258199;28;20352;-77
2021/08/23 19:53:27;;;;;;;7.43;5.97;;;;;;;;;;8258169;28;20497;-76
2021/08/23 19:57:32;;;;;;;9.13;4.15;;;;;;;;;;8257527;28;20460;-76
2021/08/23 20:01:37;;;;;;;6.40;3.90;;;;;;;;;;8255633;28;20340;-76
2021/08/23 20:05:42;;;;;;;7.05;5.55;;;;;;;;;;8254478;28;20423;-76
2021/08/23 20:09:47;;;;;;;5.70;4.28;;;;;;;;;;8256997;28;20486;-77
2021/08/23 20:13:52;;;;;;;11.13;5.25;;;;;;;;;;8256776;28;20482;-77
2021/08/23 20:17:57;;;;;;;6.55;4.15;;;;;;;;;;8256309;28;20041;-76
2021/08/23 20:22:03;;;;;;;8.60;4.20;;;;;;;;;;8257171;28;20476;-76
2021/08/23 20:26:08;;;;;;;8.23;4.32;;;;;;;;;;8255205;28;20408;-77
2021/08/23 20:30:14;;;;;;;9.05;3.40;;;;;;;;;;8258237;28;20367;-76
2021/08/23 20:34:19;;;;;;;13.00;4.20;;;;;;;;;;8255089;28;20368;-76
2021/08/23 20:38:24;;;;;;;4.82;3.75;;;;;;;;;;8259200;28;20391;-76
2021/08/23 20:42:29;;;;;;;5.13;4.20;;;;;;;;;;8260592;28;20415;-76
2021/08/23 20:46:37;;;;;;;4.18;2.90;;;;;;;;;;8262996;28;20472;-76
2021/08/23 20:50:43;;;;;;;8.07;3.00;;;;;;;;;;8244697;28;20411;-76
2021/08/23 20:59:39;;;;;;;6.38;3.60;;;;;;;;;;8193314;28;20041;-76
2021/08/23 21:04:04;;;;;;;7.57;3.75;;;;;;;;;;8176785;28;20495;-76
2021/08/23 21:08:55;;;;;;;8.25;3.75;;;;;;;;;;8140529;28;20485;-77
2021/08/23 21:13:00;;;;;;;8.18;3.40;;;;;;;;;;8192580;28;20496;-77
2021/08/23 21:17:06;;;;;;;11.32;3.20;;;;;;;;;;8192567;28;20496;-76
2021/08/23 21:21:13;;;;;;;6.95;2.83;;;;;;;;;;8177006;28;20046;-77
2021/08/23 21:30:49;;;;;;;5.13;2.55;;;;;;;;;;8174733;28;20404;-76
2021/08/23 21:34:53;;;;;;;8.20;2.92;;;;;;;;;;8212909;28;20079;-77
2021/08/23 21:38:58;;;;;;;3.72;2.47;;;;;;;;;;8263531;28;20372;-76
2021/08/23 21:43:03;;;;;;;4.60;2.40;;;;;;;;;;8260991;28;20467;-77
2021/08/23 21:47:09;;;;;;;6.88;2.55;;;;;;;;;;8261290;28;20375;-76
2021/08/23 21:51:17;;;;;;;5.32;2.60;;;;;;;;;;8260411;28;20471;-77
2021/08/23 21:55:24;;;;;;;8.40;3.60;;;;;;;;;;8262406;28;20372;-76
2021/08/23 21:59:29;;;;;;;6.97;2.75;;;;;;;;;;8260766;28;20440;-76
2021/08/23 22:03:37;;;;;;;7.32;3.50;;;;;;;;;;8242860;28;20368;-78
2021/08/23 22:07:51;;;;;;;7.00;3.72;;;;;;;;;;8259836;28;20348;-77
2021/08/23 22:11:58;;;;;;;3.95;3.10;;;;;;;;;;8260970;28;20048;-77
2021/08/23 22:16:09;;;;;;;5.07;3.17;;;;;;;;;;8275271;28;20049;-76
2021/08/23 22:20:19;;;;;;;18.65;4.07;;;;;;;;;;8258498;28;20484;-77
2021/08/23 22:24:25;;;;;;;4.38;3.60;;;;;;;;;;8262996;28;20472;-76
2021/08/23 22:28:31;;;;;;;6.05;3.65;;;;;;;;;;8243446;28;20349;-76
2021/08/23 22:32:36;;;;;;;6.55;4.15;;;;;;;;;;8259863;28;20045;-76
2021/08/23 22:36:42;;;;;;;6.10;3.90;;;;;;;;;;8259544;28;20399;-76
2021/08/23 22:40:49;;;;;;;6.85;4.70;;;;;;;;;;8243712;28;20048;-76
2021/08/23 22:44:53;;;;;;;4.18;3.67;;;;;;;;;;8258636;28;20488;-76
2021/08/23 22:48:58;;;;;;;8.68;3.92;;;;;;;;;;8261879;28;20064;-76
2021/08/23 22:53:05;;;;;;;6.35;3.08;;;;;;;;;;8259622;28;20037;-77
2021/08/23 22:57:10;;;;;;;5.00;3.72;;;;;;;;;;8259241;28;20383;-76
2021/08/23 23:01:16;;;;;;;7.28;4.20;;;;;;;;;;8257601;28;20388;-76
2021/08/23 23:05:24;;;;;;;9.18;4.07;;;;;;;;;;8257470;28;20368;-76
2021/08/23 23:09:29;;;;;;;;;;;;;;;;;;8259854;28;20338;-77
2021/08/23 23:13:35;;;;;;;5.05;3.67;;;;;;;;;;8240088;28;20343;-76
2021/08/23 23:17:40;;;;;;;8.25;4.22;;;;;;;;;;8257195;28;20474;-76
2021/08/23 23:21:47;;;;;;;7.60;3.92;;;;;;;;;;8259192;28;20491;-76
2021/08/23 23:25:52;;;;;;;8.88;3.17;;;;;;;;;;8259160;28;20479;-76
2021/08/23 23:29:57;;;;;;;5.40;3.00;;;;;;;;;;8256660;28;20356;-76
2021/08/23 23:34:01;;;;;;;4.75;3.50;;;;;;;;;;8256621;28;20383;-77
2021/08/23 23:38:26;;;;;;;7.57;3.50;;;;;;;;;;8256934;28;20509;-76
2021/08/23 23:42:31;;;;;;;6.95;3.03;;;;;;;;;;8257377;28;20049;-77
2021/08/23 23:46:36;;;;;;;6.15;4.40;;;;;;;;;;8257484;28;20045;-77
2021/08/23 23:50:41;;;;;;;11.45;5.20;;;;;;;;;;8273491;28;20468;-76
2021/08/23 23:54:47;;;;;;;14.13;9.52;;;;;;;;;;8257543;28;20407;-76
2021/08/23 23:58:52;;;;;;;15.40;11.65;;;;;;;;;;8258128;28;20472;-76
